Temp: 15.2°C   Baro: 1019.3mb
  Wind: 6.0mph   Dir: NW (316°)
  Rain: 0.2mm (0.0mm/hr)
  Solar: 176W/m2  Hum: 68%
 
Bath Spa Weather Station Historical Data
Daily Summary for October 27, 2019 Units:  Metric    English   Both
Daily Weekly Monthly Yearly Custom
  High: Low: Average:
Temperature: 12.6 °C 2.1 °C 5.9 °C
Dew Point: 6.8 °C 1.3 °C 3.9 °C
Humidity: 96% 66.3% 88%
Wind Speed: 8.5km/h 0km/h 1km/h
Wind Gust: 16.1km/h - -
Wind- - SSW
Pressure: 1026.6 hPa 1018.2 hPa -
Precipitation: 0.25 mm    
Historical Graphs
 
 
Tabular Data for October 27, 2019
Time Temperature Dew Point Pressure Wind Wind Speed Wind Gust Humidity Rainfall Rate (Hourly) solar
00:04 5.9 °C 5 °C 1018.2 hPa Calm     94% 0 mm 0 W/m2
00:09 5.9 °C 5 °C 1018.2 hPa Calm     94% 0 mm 0 W/m2
00:14 5.9 °C 5 °C 1018.2 hPa Calm     94% 0 mm 0 W/m2
00:19 5.9 °C 5 °C 1018.2 hPa Calm     94% 0 mm 0 W/m2
00:24 5.8 °C 4.9 °C 1018.2 hPa Calm     94% 0 mm 0 W/m2
00:29 5.8 °C 4.9 °C 1018.2 hPa Calm     94% 0 mm 0 W/m2
00:34 5.8 °C 4.9 °C 1018.5 hPa Calm     94% 0 mm 0 W/m2
00:39 5.8 °C 4.9 °C 1018.5 hPa Calm     94% 0 mm 0 W/m2
00:44 5.8 °C 4.9 °C 1018.8 hPa Calm     94% 0 mm 0 W/m2
00:49 5.7 °C 4.8 °C 1018.8 hPa Calm     94% 0 mm 0 W/m2
00:54 5.7 °C 4.8 °C 1018.8 hPa Calm     94.2% 0 mm 0 W/m2
00:59 5.6 °C 4.8 °C 1018.8 hPa Calm     94.5% 0 mm 0 W/m2
01:04 5.5 °C 4.6 °C 1019.2 hPa Calm     94% 0 mm 0 W/m2
01:09 5.5 °C 4.6 °C 1019.2 hPa Calm     94% 0 mm 0 W/m2
01:14 5.4 °C 4.6 °C 1019.2 hPa Calm     94% 0 mm 0 W/m2
01:19 5.4 °C 4.7 °C 1019.5 hPa Calm     94.9% 0 mm 0 W/m2
01:24 5.3 °C 4.7 °C 1019.5 hPa Calm     95% 0 mm 0 W/m2
01:29 5.2 °C 4.5 °C 1019.5 hPa Calm     94.8% 0 mm 0 W/m2
01:34 5.2 °C 4.2 °C 1019.5 hPa Calm     94% 0 mm 0 W/m2
01:39 5.1 °C 4.3 °C 1019.5 hPa Calm     94.2% 0 mm 0 W/m2
01:44 5 °C 4.3 °C 1019.5 hPa Calm     95% 0 mm 0 W/m2
01:49 4.9 °C 4.2 °C 1019.5 hPa Calm     95% 0 mm 0 W/m2
01:54 4.8 °C 3.9 °C 1019.5 hPa Calm     94.5% 0 mm 0 W/m2
01:59 4.7 °C 3.9 °C 1019.5 hPa Calm     95% 0 mm 0 W/m2
01:04 4.6 °C 3.9 °C 1019.9 hPa Calm     95% 0 mm 0 W/m2
01:09 4.6 °C 3.7 °C 1019.9 hPa Calm     94.2% 0 mm 0 W/m2
01:14 4.4 °C 3.8 °C 1020.2 hPa Calm     95% 0 mm 0 W/m2
01:19 4.3 °C 3.7 °C 1020.2 hPa Calm     95% 0 mm 0 W/m2
01:24 4.3 °C 3.6 °C 1020.2 hPa Calm     95% 0 mm 0 W/m2
01:29 4.3 °C 3.6 °C 1020.2 hPa Calm     95% 0 mm 0 W/m2
01:34 4.3 °C 3.6 °C 1020.2 hPa Calm     95% 0 mm 0 W/m2
01:39 4.2 °C 3.5 °C 1020.2 hPa Calm     95% 0 mm 0 W/m2
01:44 4.2 °C 3.5 °C 1020.2 hPa Calm     95% 0 mm 0 W/m2
01:49 4.2 °C 3.5 °C 1020.2 hPa Calm     95% 0 mm 0 W/m2
01:54 4.2 °C 3.5 °C 1020.2 hPa Calm     95% 0 mm 0 W/m2
01:59 4.2 °C 3.4 °C 1020.2 hPa Calm     95% 0 mm 0 W/m2
02:04 4.1 °C 3.4 °C 1020.2 hPa Calm     95% 0 mm 0 W/m2
02:09 4.1 °C 3.4 °C 1020.2 hPa Calm     95% 0 mm 0 W/m2
02:14 4.1 °C 3.3 °C 1020.2 hPa Calm     95% 0 mm 0 W/m2
02:19 3.9 °C 3.2 °C 1020.2 hPa Calm     95% 0 mm 0 W/m2
02:24 3.7 °C 3.1 °C 1020.2 hPa Calm     95% 0 mm 0 W/m2
02:29 3.8 °C 3.1 °C 1020.2 hPa Calm     95% 0 mm 0 W/m2
02:34 3.8 °C 3.2 °C 1020.2 hPa Calm     95% 0 mm 0 W/m2
02:39 3.9 °C 3.2 °C 1020.2 hPa Calm     95% 0 mm 0 W/m2
02:44 3.8 °C 3.1 °C 1020.2 hPa Calm     95% 0 mm 0 W/m2
02:49 3.8 °C 3.1 °C 1020.2 hPa Calm     95% 0 mm 0 W/m2
02:54 3.6 °C 2.9 °C 1020.2 hPa Calm     95% 0 mm 0 W/m2
02:59 3.6 °C 2.8 °C 1020.2 hPa Calm     95% 0 mm 0 W/m2
03:04 3.6 °C 2.9 °C 1020.2 hPa Calm     95% 0 mm 0 W/m2
03:09 3.6 °C 2.9 °C 1020.5 hPa Calm     95% 0 mm 0 W/m2
03:14 3.6 °C 2.8 °C 1020.5 hPa Calm     95% 0 mm 0 W/m2
03:19 3.4 °C 2.8 °C 1020.5 hPa Calm     95% 0 mm 0 W/m2
03:24 3.4 °C 2.7 °C 1020.5 hPa Calm     95% 0 mm 0 W/m2
03:29 3.4 °C 2.7 °C 1020.5 hPa Calm     95% 0 mm 0 W/m2
03:34 3.5 °C 2.8 °C 1020.5 hPa WNW 1 km/h 4.8 km/h 95% 0.25 mm 0 W/m2
03:39 3.6 °C 2.9 °C 1020.5 hPa WNW 1.3 km/h 4.8 km/h 95% 0.25 mm 0 W/m2
03:44 3.6 °C 2.9 °C 1020.5 hPa Calm   1.6 km/h 95% 0.25 mm 0 W/m2
03:49 3.5 °C 2.8 °C 1020.5 hPa Calm     95% 0.25 mm 0 W/m2
03:54 3.5 °C 2.8 °C 1020.9 hPa Calm   1.6 km/h 95% 0.25 mm 0 W/m2
03:59 3.6 °C 2.8 °C 1020.9 hPa Calm     95% 0.25 mm 0 W/m2
04:04 3.5 °C 2.8 °C 1020.9 hPa Calm     95% 0.25 mm 0 W/m2
04:09 3.4 °C 2.7 °C 1020.9 hPa Calm     95% 0.25 mm 0 W/m2
04:14 3.3 °C 2.6 °C 1021.2 hPa Calm     95% 0.25 mm 0 W/m2
04:19 3.2 °C 2.5 °C 1021.2 hPa Calm   1.6 km/h 95% 0.25 mm 0 W/m2
04:24 3.2 °C 2.5 °C 1021.2 hPa WNW 0.3 km/h 3.2 km/h 95% 0.25 mm 0 W/m2
04:29 3.2 °C 2.4 °C 1021.2 hPa Calm   3.2 km/h 95% 0.25 mm 0 W/m2
04:34 3.1 °C 2.4 °C 1021.2 hPa Calm     95% 0.25 mm 0 W/m2
04:39 3.1 °C 2.4 °C 1021.2 hPa Calm     95% 0 mm 0 W/m2
04:44 3.1 °C 2.4 °C 1021.6 hPa Calm   1.6 km/h 95% 0 mm 0 W/m2
04:49 3.1 °C 2.4 °C 1021.6 hPa Calm   1.6 km/h 95% 0 mm 0 W/m2
04:54 3.1 °C 2.3 °C 1021.6 hPa Calm     95% 0 mm 0 W/m2
04:59 3.1 °C 2.3 °C 1021.6 hPa Calm     95% 0 mm 0 W/m2
05:04 3 °C 2.3 °C 1021.6 hPa Calm     95% 0 mm 0 W/m2
05:09 2.9 °C 2.2 °C 1021.6 hPa Calm     95% 0 mm 0 W/m2
05:14 2.9 °C 2.2 °C 1021.6 hPa Calm     95% 0 mm 0 W/m2
05:19 2.8 °C 2.2 °C 1021.9 hPa Calm     95% 0 mm 0 W/m2
05:24 2.8 °C 2.1 °C 1021.9 hPa WNW 0.3 km/h 4.8 km/h 95% 0 mm 0 W/m2
05:29 2.8 °C 2.1 °C 1021.9 hPa Calm     95% 0 mm 0 W/m2
05:34 2.7 °C 2 °C 1022.2 hPa Calm     95% 0 mm 0 W/m2
05:39 2.6 °C 1.9 °C 1022.2 hPa Calm   1.6 km/h 95% 0 mm 0 W/m2
05:44 2.6 °C 1.9 °C 1022.2 hPa WNW 0.3 km/h 3.2 km/h 95% 0 mm 0 W/m2
05:49 2.6 °C 1.9 °C 1022.2 hPa Calm   3.2 km/h 95% 0 mm 0 W/m2
05:54 2.6 °C 1.9 °C 1022.2 hPa Calm     95% 0 mm 0 W/m2
05:59 2.6 °C 1.9 °C 1022.2 hPa WNW 0.2 km/h 3.2 km/h 95% 0 mm 0 W/m2
06:04 2.6 °C 1.8 °C 1022.2 hPa Calm   1.6 km/h 95% 0 mm 0 W/m2
06:09 2.6 °C 1.9 °C 1022.2 hPa Calm     95% 0 mm 0 W/m2
06:14 2.6 °C 1.8 °C 1022.2 hPa Calm     95% 0 mm 0 W/m2
06:19 2.4 °C 1.7 °C 1022.6 hPa Calm     95% 0 mm 0 W/m2
06:24 2.3 °C 1.6 °C 1022.6 hPa Calm     95% 0 mm 0 W/m2
06:29 2.2 °C 1.5 °C 1022.6 hPa Calm   1.6 km/h 95% 0 mm 0 W/m2
06:34 2.2 °C 1.5 °C 1022.6 hPa Calm     95% 0 mm 0 W/m2
06:39 2.2 °C 1.5 °C 1022.9 hPa Calm     95% 0 mm 0 W/m2
06:44 2.2 °C 1.5 °C 1022.9 hPa Calm     95% 0 mm 0 W/m2
06:49 2.2 °C 1.5 °C 1022.9 hPa Calm     95% 0 mm 0 W/m2
06:54 2.2 °C 1.5 °C 1022.9 hPa Calm     95% 0 mm 0 W/m2
06:59 2.2 °C 1.5 °C 1022.9 hPa Calm     95% 0 mm 5 W/m2
07:04 2.2 °C 1.4 °C 1022.9 hPa WNW 0.3 km/h 3.2 km/h 95% 0 mm 9 W/m2
07:09 2.1 °C 1.4 °C 1023.2 hPa WNW 0.8 km/h 3.2 km/h 95% 0 mm 12 W/m2
07:14 2.2 °C 1.5 °C 1023.2 hPa WNW 0.5 km/h 3.2 km/h 95% 0 mm 19 W/m2
07:19 2.2 °C 1.6 °C 1023.2 hPa Calm   1.6 km/h 95% 0 mm 25 W/m2
07:24 2.3 °C 1.6 °C 1023.2 hPa Calm   1.6 km/h 95% 0 mm 28 W/m2
07:29 2.3 °C 1.6 °C 1023.2 hPa Calm     95% 0 mm 33 W/m2
07:34 2.3 °C 1.6 °C 1023.6 hPa WNW 0.2 km/h 1.6 km/h 95% 0 mm 39 W/m2
07:39 2.3 °C 1.7 °C 1023.6 hPa Calm     95% 0 mm 44 W/m2
07:44 2.4 °C 1.7 °C 1023.6 hPa Calm     95% 0 mm 47 W/m2
07:49 2.5 °C 1.8 °C 1023.9 hPa Calm   1.6 km/h 95% 0 mm 49 W/m2
07:54 2.6 °C 1.9 °C 1023.9 hPa WNW 0.2 km/h 1.6 km/h 95% 0 mm 53 W/m2
07:59 2.6 °C 1.9 °C 1023.9 hPa Calm     95% 0 mm 54 W/m2
08:04 2.7 °C 2 °C 1023.9 hPa Calm     95% 0 mm 54 W/m2
08:09 2.8 °C 2.1 °C 1023.9 hPa Calm     95% 0 mm 54 W/m2
08:14 2.8 °C 2.2 °C 1023.9 hPa Calm     95% 0 mm 56 W/m2
08:19 3 °C 2.4 °C 1023.9 hPa Calm     95.9% 0 mm 67 W/m2
08:24 3.5 °C 2.8 °C 1023.9 hPa Calm     95.2% 0 mm 84 W/m2
08:29 3.5 °C 2.8 °C 1023.9 hPa Calm   1.6 km/h 95.7% 0 mm 86 W/m2
08:34 3.7 °C 3.1 °C 1024.3 hPa Calm   1.6 km/h 95.5% 0 mm 98 W/m2
08:39 3.8 °C 3.3 °C 1024.3 hPa Calm     96% 0 mm 97 W/m2
08:44 4.1 °C 3.4 °C 1024.3 hPa Calm     96% 0 mm 104 W/m2
08:49 4.3 °C 3.7 °C 1024.6 hPa Calm     96% 0 mm 128 W/m2
08:54 4.4 °C 3.8 °C 1024.6 hPa Calm     96% 0 mm 134 W/m2
08:59 4.9 °C 4.3 °C 1024.6 hPa Calm     96% 0 mm 162 W/m2
09:04 5.1 °C 4.4 °C 1024.6 hPa Calm     96% 0 mm 188 W/m2
09:09 4.8 °C 4.2 °C 1024.6 hPa Calm     96% 0 mm 188 W/m2
09:14 4.9 °C 4.3 °C 1024.6 hPa Calm     96% 0 mm 172 W/m2
09:19 5.2 °C 4.6 °C 1024.6 hPa Calm   1.6 km/h 96% 0 mm 174 W/m2
09:24 5.6 °C 5 °C 1024.6 hPa WNW 0.5 km/h 3.2 km/h 96% 0 mm 204 W/m2
09:29 5.8 °C 5.2 °C 1024.9 hPa WNW 0.2 km/h 3.2 km/h 96% 0 mm 243 W/m2
09:34 6 °C 5.4 °C 1024.9 hPa WNW 0.2 km/h 1.6 km/h 95.9% 0 mm 230 W/m2
09:39 6.2 °C 5.4 °C 1024.9 hPa WNW 2.7 km/h 8 km/h 95% 0 mm 207 W/m2
09:44 6.2 °C 5.5 °C 1024.9 hPa WNW 4.2 km/h 8 km/h 95% 0 mm 243 W/m2
09:49 6.5 °C 5.7 °C 1024.9 hPa WNW 1.9 km/h 8 km/h 94.7% 0 mm 262 W/m2
09:54 6.9 °C 5.9 °C 1024.9 hPa WNW 2.7 km/h 6.4 km/h 94% 0 mm 287 W/m2
09:59 7.1 °C 6.1 °C 1024.9 hPa WNW 2.7 km/h 4.8 km/h 93.3% 0 mm 295 W/m2
10:04 7.4 °C 6.2 °C 1024.9 hPa WNW 1 km/h 4.8 km/h 92% 0 mm 306 W/m2
10:09 8.1 °C 6.6 °C 1024.9 hPa WNW 1.4 km/h 6.4 km/h 90.8% 0 mm 316 W/m2
10:14 8.2 °C 6.6 °C 1024.9 hPa WNW 1.1 km/h 6.4 km/h 89.3% 0 mm 304 W/m2
10:19 8.2 °C 6.2 °C 1024.9 hPa WNW 4.5 km/h 8 km/h 87.7% 0 mm 285 W/m2
10:24 8.1 °C 5.9 °C 1024.9 hPa WNW 5.6 km/h 8 km/h 86.4% 0 mm 306 W/m2
10:29 7.9 °C 5.6 °C 1024.9 hPa WNW 4.2 km/h 8 km/h 85.2% 0 mm 325 W/m2
10:34 8.2 °C 5.9 °C 1024.9 hPa WNW 3.5 km/h 8 km/h 85.5% 0 mm 346 W/m2
10:39 8.6 °C 6.3 °C 1024.9 hPa WNW 3.7 km/h 8 km/h 85.3% 0 mm 359 W/m2
10:44 8.4 °C 6 °C 1024.9 hPa WNW 6.4 km/h 11.3 km/h 84.3% 0 mm 322 W/m2
10:49 8.6 °C 6 °C 1024.9 hPa West 3.2 km/h 11.3 km/h 84% 0 mm 364 W/m2
10:54 8.9 °C 6.3 °C 1024.9 hPa WNW 5 km/h 11.3 km/h 83.8% 0 mm 376 W/m2
10:59 8.8 °C 6.1 °C 1024.9 hPa West 5.8 km/h 11.3 km/h 83% 0 mm 387 W/m2
11:04 9.3 °C 6.6 °C 1024.9 hPa West 3.7 km/h 9.7 km/h 83.3% 0 mm 387 W/m2
11:09 9.4 °C 6.6 °C 1024.9 hPa West 4.2 km/h 9.7 km/h 82.3% 0 mm 397 W/m2
11:14 9.4 °C 6.3 °C 1024.9 hPa NW 7.6 km/h 12.9 km/h 81% 0 mm 396 W/m2
11:19 9.6 °C 6.4 °C 1024.9 hPa NW 2.7 km/h 12.9 km/h 80.5% 0 mm 390 W/m2
11:24 10 °C 6.6 °C 1024.9 hPa WNW 6.6 km/h 12.9 km/h 79.3% 0 mm 401 W/m2
11:29 9.9 °C 6.2 °C 1024.9 hPa NW 3.5 km/h 9.7 km/h 78% 0 mm 415 W/m2
11:34 10.1 °C 6.3 °C 1024.9 hPa NNW 6 km/h 11.3 km/h 77.1% 0 mm 418 W/m2
11:39 10.4 °C 6.3 °C 1024.9 hPa NW 3.9 km/h 11.3 km/h 75.5% 0 mm 413 W/m2
11:44 10.6 °C 6.5 °C 1024.9 hPa WNW 1.3 km/h 9.7 km/h 76% 0 mm 403 W/m2
11:49 10.9 °C 6.8 °C 1024.9 hPa WNW 3.2 km/h 8 km/h 75.9% 0 mm 427 W/m2
11:54 10.8 °C 6.2 °C 1024.9 hPa WNW 6.4 km/h 12.9 km/h 73.2% 0 mm 413 W/m2
11:59 10.7 °C 5.8 °C 1024.6 hPa NW 4.7 km/h 12.9 km/h 71.6% 0 mm 399 W/m2
12:04 10.8 °C 5.6 °C 1024.6 hPa North 6.9 km/h 16.1 km/h 70.3% 0 mm 425 W/m2
12:09 11 °C 5.7 °C 1024.6 hPa NNW 1 km/h 9.7 km/h 70% 0 mm 445 W/m2
12:14 11.2 °C 5.8 °C 1024.6 hPa NNW 0.8 km/h 3.2 km/h 69.3% 0 mm 445 W/m2
12:19 11.7 °C 6.2 °C 1024.6 hPa North 3.9 km/h 9.7 km/h 68.7% 0 mm 448 W/m2
12:24 11.6 °C 5.6 °C 1024.3 hPa NNE 3.9 km/h 9.7 km/h 66.3% 0 mm 446 W/m2
12:29 11.2 °C 5.3 °C 1024.3 hPa NNE 3.4 km/h 11.3 km/h 66.7% 0 mm 396 W/m2
12:34 11.7 °C 5.9 °C 1024.3 hPa North 2.1 km/h 11.3 km/h 67.4% 0 mm 367 W/m2
12:39 11.7 °C 5.8 °C 1024.3 hPa NNW 4.3 km/h 9.7 km/h 67.3% 0 mm 315 W/m2
12:44 11.3 °C 6 °C 1024.3 hPa North 6.3 km/h 14.5 km/h 70% 0 mm 346 W/m2
12:49 11.2 °C 5.9 °C 1024.6 hPa North 3.2 km/h 11.3 km/h 70.4% 0 mm 381 W/m2
12:54 11.4 °C 6.2 °C 1024.6 hPa North 3.5 km/h 9.7 km/h 70.3% 0 mm 403 W/m2
12:59 11.6 °C 6 °C 1024.6 hPa North 5.1 km/h 11.3 km/h 68.6% 0 mm 403 W/m2
13:04 11.4 °C 5.9 °C 1024.6 hPa North 4.7 km/h 14.5 km/h 69% 0 mm 417 W/m2
13:09 11.7 °C 6.2 °C 1024.6 hPa North 3.7 km/h 12.9 km/h 69% 0 mm 417 W/m2
13:14 11.6 °C 5.9 °C 1024.3 hPa North 2.6 km/h 9.7 km/h 68.2% 0 mm 418 W/m2
13:19 11.8 °C 6.2 °C 1024.3 hPa North 5 km/h 11.3 km/h 68.1% 0 mm 418 W/m2
13:24 11.8 °C 6.4 °C 1024.3 hPa NNW 4.2 km/h 11.3 km/h 69.4% 0 mm 388 W/m2
13:29 12.6 °C 6.8 °C 1024.6 hPa NNW 2.7 km/h 9.7 km/h 67.7% 0 mm 390 W/m2
13:34 12.1 °C 6.1 °C 1024.6 hPa North 5.3 km/h 12.9 km/h 66.5% 0 mm 390 W/m2
13:39 12 °C 6.4 °C 1024.6 hPa NNE 4.2 km/h 12.9 km/h 68.7% 0 mm 378 W/m2
13:44 12.4 °C 6.8 °C 1024.6 hPa NNE 1.4 km/h 8 km/h 68.1% 0 mm 380 W/m2
13:49 11.9 °C 5.9 °C 1024.6 hPa NNW 5 km/h 9.7 km/h 66.5% 0 mm 366 W/m2
13:54 11.6 °C 5.8 °C 1024.6 hPa NW 6.1 km/h 11.3 km/h 68% 0 mm 322 W/m2
13:59 11.6 °C 6.2 °C 1024.6 hPa WNW 2.7 km/h 8 km/h 69% 0 mm 338 W/m2
14:04 12.2 °C 6.6 °C 1024.6 hPa WNW 3.1 km/h 6.4 km/h 68.3% 0 mm 353 W/m2
14:09 12.2 °C 6.4 °C 1024.6 hPa NW 3.7 km/h 8 km/h 68.1% 0 mm 350 W/m2
14:14 12 °C 6.3 °C 1024.6 hPa North 8.5 km/h 14.5 km/h 68% 0 mm 322 W/m2
14:19 11.7 °C 5.9 °C 1024.6 hPa North 6.3 km/h 14.5 km/h 67.7% 0 mm 288 W/m2
14:24 11.6 °C 5.8 °C 1024.6 hPa North 4.3 km/h 11.3 km/h 67.8% 0 mm 297 W/m2
14:29 11.7 °C 6 °C 1024.6 hPa North 2.9 km/h 6.4 km/h 68% 0 mm 292 W/m2
14:34 11.7 °C 6.1 °C 1024.6 hPa North 1 km/h 9.7 km/h 68% 0 mm 236 W/m2
14:39 11.9 °C 6.4 °C 1024.6 hPa North 2.6 km/h 8 km/h 68.8% 0 mm 255 W/m2
14:44 11.8 °C 5.9 °C 1024.6 hPa North 3.5 km/h 8 km/h 67.1% 0 mm 171 W/m2
14:49 11.6 °C 5.8 °C 1024.6 hPa North 5.3 km/h 11.3 km/h 67.8% 0 mm 179 W/m2
14:54 11.4 °C 5.8 °C 1024.6 hPa North 4.5 km/h 9.7 km/h 68.4% 0 mm 179 W/m2
14:59 11.4 °C 5.8 °C 1024.6 hPa North 2.4 km/h 6.4 km/h 68.6% 0 mm 156 W/m2
15:04 11.3 °C 5.9 °C 1024.6 hPa North 3.7 km/h 8 km/h 69.4% 0 mm 160 W/m2
15:09 11.2 °C 5.8 °C 1024.6 hPa North 4.3 km/h 9.7 km/h 69.5% 0 mm 137 W/m2
15:14 11.2 °C 5.7 °C 1024.6 hPa North 1.6 km/h 9.7 km/h 69.4% 0 mm 109 W/m2
15:19 11.2 °C 5.8 °C 1024.6 hPa North 2.6 km/h 6.4 km/h 70% 0 mm 118 W/m2
15:24 11.2 °C 5.8 °C 1024.6 hPa North 0.6 km/h 4.8 km/h 70.2% 0 mm 116 W/m2
15:29 11.2 °C 6.1 °C 1024.6 hPa Calm     71% 0 mm 120 W/m2
15:34 11.3 °C 6.2 °C 1024.9 hPa Calm     71% 0 mm 107 W/m2
15:39 11.3 °C 6.2 °C 1024.9 hPa Calm     71% 0 mm 86 W/m2
15:44 11.3 °C 6.2 °C 1024.9 hPa Calm     71% 0 mm 84 W/m2
15:49 11.2 °C 6.1 °C 1024.9 hPa Calm     71% 0 mm 79 W/m2
15:54 11 °C 6.2 °C 1024.9 hPa Calm     72% 0 mm 67 W/m2
15:59 10.8 °C 6.1 °C 1024.9 hPa Calm     72% 0 mm 60 W/m2
16:04 10.7 °C 5.9 °C 1024.9 hPa Calm     72% 0 mm 51 W/m2
16:09 10.7 °C 6.1 °C 1024.9 hPa Calm     72.6% 0 mm 44 W/m2
16:14 10.8 °C 6.3 °C 1024.9 hPa Calm     73.6% 0 mm 40 W/m2
16:19 10.7 °C 6.3 °C 1024.9 hPa Calm     74% 0 mm 35 W/m2
16:24 10.3 °C 5.9 °C 1024.9 hPa Calm     74% 0 mm 30 W/m2
16:29 10.1 °C 5.9 °C 1024.9 hPa Calm     75% 0 mm 25 W/m2
16:34 9.9 °C 5.7 °C 1024.9 hPa Calm     75% 0 mm 21 W/m2
16:39 9.8 °C 5.6 °C 1024.9 hPa Calm     75.2% 0 mm 18 W/m2
16:44 9.6 °C 5.5 °C 1024.9 hPa Calm     76% 0 mm 12 W/m2
16:49 9.2 °C 5.3 °C 1024.9 hPa Calm     76.1% 0 mm 9 W/m2
16:54 8.9 °C 5.1 °C 1025.3 hPa Calm     77% 0 mm 5 W/m2
16:59 8.6 °C 4.9 °C 1025.3 hPa Calm     78.1% 0 mm 0 W/m2
17:04 8.3 °C 5 °C 1025.3 hPa Calm     79.5% 0 mm 0 W/m2
17:09 8.2 °C 5.1 °C 1025.3 hPa Calm     80.7% 0 mm 0 W/m2
17:14 8.2 °C 5.3 °C 1025.3 hPa Calm     81.8% 0 mm 0 W/m2
17:19 7.8 °C 4.9 °C 1025.3 hPa Calm     82% 0 mm 0 W/m2
17:24 7.6 °C 4.8 °C 1025.3 hPa Calm     82.7% 0 mm 0 W/m2
17:29 7.6 °C 5 °C 1025.3 hPa Calm     83.7% 0 mm 0 W/m2
17:34 7.4 °C 4.9 °C 1025.3 hPa Calm     84% 0 mm 0 W/m2
17:39 7.2 °C 4.8 °C 1025.6 hPa Calm     84.4% 0 mm 0 W/m2
17:44 7.1 °C 4.7 °C 1025.6 hPa Calm     85% 0 mm 0 W/m2
17:49 6.9 °C 4.6 °C 1025.6 hPa Calm     85% 0 mm 0 W/m2
17:54 6.7 °C 4.4 °C 1025.6 hPa Calm     85.5% 0 mm 0 W/m2
17:59 6.5 °C 4.3 °C 1025.6 hPa Calm     86% 0 mm 0 W/m2
18:04 6.4 °C 4.3 °C 1025.6 hPa Calm     86.2% 0 mm 0 W/m2
18:09 6.3 °C 4.3 °C 1025.6 hPa Calm     87% 0 mm 0 W/m2
18:14 6.2 °C 4.2 °C 1025.6 hPa Calm     87% 0 mm 0 W/m2
18:19 6.1 °C 4.1 °C 1025.6 hPa Calm     87% 0 mm 0 W/m2
18:24 6 °C 4.1 °C 1025.6 hPa Calm     87.3% 0 mm 0 W/m2
18:29 5.8 °C 4.1 °C 1025.6 hPa Calm     88% 0 mm 0 W/m2
18:34 5.7 °C 3.9 °C 1025.6 hPa Calm     88% 0 mm 0 W/m2
18:39 5.7 °C 3.9 °C 1025.6 hPa Calm     88% 0 mm 0 W/m2
18:44 5.7 °C 3.8 °C 1025.6 hPa Calm     88% 0 mm 0 W/m2
18:49 5.6 °C 3.8 °C 1025.6 hPa Calm     88.3% 0 mm 0 W/m2
18:54 5.4 °C 3.7 °C 1025.6 hPa Calm     89% 0 mm 0 W/m2
18:59 5.2 °C 3.6 °C 1025.6 hPa Calm     89% 0 mm 0 W/m2
19:04 5.2 °C 3.4 °C 1025.6 hPa Calm     89% 0 mm 0 W/m2
19:09 5.1 °C 3.4 °C 1025.6 hPa Calm     89% 0 mm 0 W/m2
19:14 5.1 °C 3.3 °C 1025.6 hPa Calm     89% 0 mm 0 W/m2
19:19 4.9 °C 3.3 °C 1025.6 hPa Calm     89% 0 mm 0 W/m2
19:24 4.9 °C 3.3 °C 1025.6 hPa Calm     89.7% 0 mm 0 W/m2
19:29 4.9 °C 3.4 °C 1025.6 hPa Calm     90% 0 mm 0 W/m2
19:34 4.8 °C 3.3 °C 1025.3 hPa Calm     90% 0 mm 0 W/m2
19:39 4.7 °C 3.2 °C 1025.6 hPa Calm     90% 0 mm 0 W/m2
19:44 4.7 °C 3.2 °C 1025.6 hPa Calm     90% 0 mm 0 W/m2
19:49 4.6 °C 3.1 °C 1025.6 hPa Calm     90% 0 mm 0 W/m2
19:54 4.3 °C 2.8 °C 1025.6 hPa Calm   1.6 km/h 90% 0 mm 0 W/m2
19:59 4.3 °C 2.8 °C 1025.6 hPa Calm     90% 0 mm 0 W/m2
20:04 4.3 °C 2.9 °C 1025.6 hPa Calm     90.6% 0 mm 0 W/m2
20:09 4.3 °C 3 °C 1025.6 hPa Calm     91% 0 mm 0 W/m2
20:14 4.3 °C 3 °C 1025.6 hPa Calm     91% 0 mm 0 W/m2
20:19 4.3 °C 2.9 °C 1025.6 hPa Calm     91% 0 mm 0 W/m2
20:24 4.1 °C 2.8 °C 1025.6 hPa Calm     91% 0 mm 0 W/m2
20:29 4 °C 2.7 °C 1025.6 hPa Calm     91% 0 mm 0 W/m2
20:34 4 °C 2.7 °C 1025.6 hPa Calm   1.6 km/h 91% 0 mm 0 W/m2
20:39 3.9 °C 2.7 °C 1025.6 hPa North 0.5 km/h 1.6 km/h 91% 0 mm 0 W/m2
20:44 3.8 °C 2.6 °C 1025.6 hPa Calm   1.6 km/h 91% 0 mm 0 W/m2
20:49 3.8 °C 2.5 °C 1025.6 hPa Calm   1.6 km/h 91% 0 mm 0 W/m2
20:54 3.7 °C 2.3 °C 1025.6 hPa Calm   1.6 km/h 91% 0 mm 0 W/m2
20:59 3.6 °C 2.3 °C 1026 hPa Calm     91% 0 mm 0 W/m2
21:04 3.6 °C 2.3 °C 1026 hPa Calm     91% 0 mm 0 W/m2
21:09 3.6 °C 2.3 °C 1026 hPa Calm     91.3% 0 mm 0 W/m2
21:14 3.5 °C 2.3 °C 1026 hPa Calm     92% 0 mm 0 W/m2
21:19 3.4 °C 2.2 °C 1026.3 hPa Calm     92% 0 mm 0 W/m2
21:24 3.4 °C 2.2 °C 1026.3 hPa Calm     92% 0 mm 0 W/m2
21:29 3.4 °C 2.2 °C 1026.6 hPa Calm     92% 0 mm 0 W/m2
21:34 3.4 °C 2.2 °C 1026.3 hPa Calm     92% 0 mm 0 W/m2
21:39 3.3 °C 2.1 °C 1026.6 hPa Calm     92% 0 mm 0 W/m2
21:44 3.3 °C 2.1 °C 1026.6 hPa Calm     92% 0 mm 0 W/m2
21:49 3.3 °C 2.1 °C 1026.6 hPa Calm     92% 0 mm 0 W/m2
21:54 3.3 °C 2.1 °C 1026.3 hPa Calm     92% 0 mm 0 W/m2
21:59 3.2 °C 2 °C 1026.3 hPa Calm     92% 0 mm 0 W/m2
22:04 3.1 °C 1.9 °C 1026.3 hPa Calm     92% 0 mm 0 W/m2
22:09 3.2 °C 2 °C 1026.3 hPa Calm     92% 0 mm 0 W/m2
22:14 3.2 °C 1.9 °C 1026.3 hPa Calm     92% 0 mm 0 W/m2
22:19 3.1 °C 1.9 °C 1026.3 hPa Calm   1.6 km/h 92% 0 mm 0 W/m2
22:24 3.1 °C 1.9 °C 1026.3 hPa Calm   1.6 km/h 92% 0 mm 0 W/m2
22:29 3.1 °C 1.8 °C 1026.3 hPa Calm     92% 0 mm 0 W/m2
22:34 3 °C 1.8 °C 1026.3 hPa Calm     92% 0 mm 0 W/m2
22:39 2.9 °C 1.7 °C 1026.3 hPa Calm   1.6 km/h 92% 0 mm 0 W/m2
22:44 2.9 °C 1.7 °C 1026.3 hPa Calm   1.6 km/h 92% 0 mm 0 W/m2
22:49 2.9 °C 1.7 °C 1026.3 hPa Calm   1.6 km/h 92% 0 mm 0 W/m2
22:54 2.9 °C 1.7 °C 1026.3 hPa Calm   1.6 km/h 92% 0 mm 0 W/m2
22:59 2.8 °C 1.7 °C 1026.3 hPa Calm     92.3% 0 mm 0 W/m2
23:04 2.8 °C 1.6 °C 1026.3 hPa Calm     92% 0 mm 0 W/m2
23:09 2.8 °C 1.6 °C 1026.3 hPa Calm     92% 0 mm 0 W/m2
23:14 2.7 °C 1.5 °C 1026.3 hPa Calm   1.6 km/h 92% 0 mm 0 W/m2
23:19 2.7 °C 1.6 °C 1026.3 hPa Calm     92.7% 0 mm 0 W/m2
23:24 2.6 °C 1.6 °C 1026.3 hPa Calm     93% 0 mm 0 W/m2
23:29 2.6 °C 1.6 °C 1026.3 hPa Calm     93% 0 mm 0 W/m2
23:34 2.4 °C 1.4 °C 1026.3 hPa Calm     93% 0 mm 0 W/m2
23:39 2.4 °C 1.4 °C 1026.3 hPa Calm     93% 0 mm 0 W/m2
23:44 2.3 °C 1.3 °C 1026.3 hPa Calm     93% 0 mm 0 W/m2
23:49 2.3 °C 1.3 °C 1026 hPa Calm   1.6 km/h 93% 0 mm 0 W/m2
23:54 2.3 °C 1.3 °C 1026 hPa Calm     93% 0 mm 0 W/m2
23:59 2.3 °C 1.3 °C 1026 hPa Calm     93% 0 mm 0 W/m2
Bath Spa Weather
Compliments of Weather Underground - 2 mb